PHNL Airport (Daniel K Inouye Intl) Information

FAA: HNL - ICAO: PHNL

PHNL Airport Location

State Hawaii
County Honolulu
City Honolulu
PHNL Airport is 3 miles northwest of Honolulu, HI.
Latitude 21-19-04.1420N
Longitude 157-55-12.8190W
Elevation 12ft

PHNL Airport METARs

METAR PHNL 200453Z 04004KT 10SM FEW025 FEW040 24/16 A3004 RMK AO2 SLP171 T02440161 $
Altimeter 30.04"
Temperature 24.4°C (75.9°F)
Wind 40° at 4KT
Clouds few at 2,500ft few at 4,000ft
Visibility 10.0mi
Time observed: 2021-10-20T04:53:00Z

PHNL Airport Details

Status Operational
Activation February 1938
Ownership Public
Usage Public
Chart HAWAIIAN ISLANDS
ATC on-site Yes
Beacon schedule sunset-sunrise
Beacon color clear green

PHNL Airport Contacts

Owner STATE OF HAWAII
Owner address HONOLULU INTL AIRPORT, HONOLULU, HI 96819
Owner phone 808-838-8600
Manager TOM ADA
Manager address P.O. BOX 8770, TAMUNING, GU 96931
Manager phone 671-646-0300

PHNL Airport (Daniel K Inouye Intl) Radio Frequencies

PHNL (Airport) Radio Frequencies

UNICOM N/A
Common traffic advisory frequency (CTAF) N/A